sensor_id;sensor_type;location;lat;lon;timestamp;pressure;altitude;pressure_sealevel;temperature;humidity
42125;BME280;27787;44.594;11.046;2023-05-23T00:01:44;100762.31;;;19.89;87.08
42125;BME280;27787;44.594;11.046;2023-05-23T00:04:29;100765.75;;;19.94;86.79
42125;BME280;27787;44.594;11.046;2023-05-23T00:07:15;100756.56;;;20.01;85.96
42125;BME280;27787;44.594;11.046;2023-05-23T00:09:59;100761.00;;;20.02;84.97
42125;BME280;27787;44.594;11.046;2023-05-23T00:12:44;100756.69;;;19.98;84.37
42125;BME280;27787;44.594;11.046;2023-05-23T00:15:31;100753.28;;;19.93;84.59
42125;BME280;27787;44.594;11.046;2023-05-23T00:18:17;100755.31;;;19.85;85.08
42125;BME280;27787;44.594;11.046;2023-05-23T00:21:01;100753.59;;;19.82;85.24
42125;BME280;27787;44.594;11.046;2023-05-23T00:23:46;100753.72;;;19.78;84.63
42125;BME280;27787;44.594;11.046;2023-05-23T00:26:31;100754.84;;;19.70;85.32
42125;BME280;27787;44.594;11.046;2023-05-23T00:29:15;100747.84;;;19.66;85.09
42125;BME280;27787;44.594;11.046;2023-05-23T00:32:00;100752.34;;;19.64;84.68
42125;BME280;27787;44.594;11.046;2023-05-23T00:34:44;100748.66;;;19.68;84.23
42125;BME280;27787;44.594;11.046;2023-05-23T00:37:28;100752.19;;;19.70;84.06
42125;BME280;27787;44.594;11.046;2023-05-23T00:40:12;100749.28;;;19.77;84.14
42125;BME280;27787;44.594;11.046;2023-05-23T00:42:56;100749.13;;;19.83;83.66
42125;BME280;27787;44.594;11.046;2023-05-23T00:45:40;100741.97;;;19.83;83.56
42125;BME280;27787;44.594;11.046;2023-05-23T00:48:25;100752.56;;;19.86;83.68
42125;BME280;27787;44.594;11.046;2023-05-23T00:51:09;100743.66;;;19.86;83.23
42125;BME280;27787;44.594;11.046;2023-05-23T00:53:53;100743.66;;;19.86;82.96
42125;BME280;27787;44.594;11.046;2023-05-23T00:56:38;100745.56;;;19.82;82.49
42125;BME280;27787;44.594;11.046;2023-05-23T00:59:24;100747.38;;;19.82;83.24
42125;BME280;27787;44.594;11.046;2023-05-23T01:02:08;100741.19;;;19.80;83.03
42125;BME280;27787;44.594;11.046;2023-05-23T01:04:54;100743.94;;;19.77;83.24
42125;BME280;27787;44.594;11.046;2023-05-23T01:07:39;100747.69;;;19.71;83.37
42125;BME280;27787;44.594;11.046;2023-05-23T01:10:28;100746.03;;;19.67;83.62
42125;BME280;27787;44.594;11.046;2023-05-23T01:13:33;100756.78;;;19.65;83.70
42125;BME280;27787;44.594;11.046;2023-05-23T01:16:44;100754.16;;;19.64;83.72
42125;BME280;27787;44.594;11.046;2023-05-23T01:28:19;100757.28;;;19.78;83.01
42125;BME280;27787;44.594;11.046;2023-05-23T01:31:07;100757.34;;;19.77;82.48
42125;BME280;27787;44.594;11.046;2023-05-23T01:33:53;100760.00;;;19.77;82.23
42125;BME280;27787;44.594;11.046;2023-05-23T01:36:42;100760.94;;;19.76;82.31
42125;BME280;27787;44.594;11.046;2023-05-23T01:39:27;100765.38;;;19.77;81.94
42125;BME280;27787;44.594;11.046;2023-05-23T01:42:11;100758.31;;;19.74;81.77
42125;BME280;27787;44.594;11.046;2023-05-23T01:44:56;100764.69;;;19.70;81.98
42125;BME280;27787;44.594;11.046;2023-05-23T01:47:42;100755.91;;;19.65;82.29
42125;BME280;27787;44.594;11.046;2023-05-23T01:50:27;100753.38;;;19.60;82.49
42125;BME280;27787;44.594;11.046;2023-05-23T01:53:15;100752.53;;;19.58;82.66
42125;BME280;27787;44.594;11.046;2023-05-23T01:56:00;100753.53;;;19.54;83.00
42125;BME280;27787;44.594;11.046;2023-05-23T01:58:47;100750.91;;;19.51;83.53
42125;BME280;27787;44.594;11.046;2023-05-23T02:01:32;100760.94;;;19.44;83.96
42125;BME280;27787;44.594;11.046;2023-05-23T02:04:16;100753.91;;;19.42;84.21
42125;BME280;27787;44.594;11.046;2023-05-23T02:07:00;100748.44;;;19.45;83.56
42125;BME280;27787;44.594;11.046;2023-05-23T02:09:44;100750.41;;;19.38;83.67
42125;BME280;27787;44.594;11.046;2023-05-23T02:12:30;100744.53;;;19.26;84.46
42125;BME280;27787;44.594;11.046;2023-05-23T02:15:16;100745.75;;;19.14;85.30
42125;BME280;27787;44.594;11.046;2023-05-23T02:18:00;100753.09;;;19.07;85.15
42125;BME280;27787;44.594;11.046;2023-05-23T02:20:45;100751.34;;;19.06;85.69
42125;BME280;27787;44.594;11.046;2023-05-23T02:23:29;100738.69;;;19.11;85.26
42125;BME280;27787;44.594;11.046;2023-05-23T02:26:14;100738.44;;;19.21;84.54
42125;BME280;27787;44.594;11.046;2023-05-23T02:29:00;100731.16;;;19.26;84.06
42125;BME280;27787;44.594;11.046;2023-05-23T02:31:45;100732.84;;;19.30;83.57
42125;BME280;27787;44.594;11.046;2023-05-23T02:34:29;100738.22;;;19.28;83.55
42125;BME280;27787;44.594;11.046;2023-05-23T02:37:13;100742.63;;;19.31;83.91
42125;BME280;27787;44.594;11.046;2023-05-23T02:39:58;100740.94;;;19.27;83.54
42125;BME280;27787;44.594;11.046;2023-05-23T02:42:42;100741.31;;;19.13;84.17
42125;BME280;27787;44.594;11.046;2023-05-23T02:45:26;100743.47;;;19.00;85.42
42125;BME280;27787;44.594;11.046;2023-05-23T02:48:11;100746.31;;;18.94;85.41
42125;BME280;27787;44.594;11.046;2023-05-23T02:50:55;100744.91;;;18.81;86.20
42125;BME280;27787;44.594;11.046;2023-05-23T02:53:39;100744.09;;;18.77;86.65
42125;BME280;27787;44.594;11.046;2023-05-23T02:56:24;100741.34;;;18.80;86.50
42125;BME280;27787;44.594;11.046;2023-05-23T02:59:09;100741.25;;;18.83;85.64
42125;BME280;27787;44.594;11.046;2023-05-23T03:01:55;100740.28;;;18.86;86.14
42125;BME280;27787;44.594;11.046;2023-05-23T03:04:39;100732.22;;;18.88;85.25
42125;BME280;27787;44.594;11.046;2023-05-23T03:07:23;100734.00;;;18.89;84.96
42125;BME280;27787;44.594;11.046;2023-05-23T03:10:07;100736.69;;;18.87;84.90
42125;BME280;27787;44.594;11.046;2023-05-23T03:12:52;100733.91;;;18.92;85.11
42125;BME280;27787;44.594;11.046;2023-05-23T03:15:36;100736.50;;;18.95;84.63
42125;BME280;27787;44.594;11.046;2023-05-23T03:18:20;100727.50;;;18.97;84.64
42125;BME280;27787;44.594;11.046;2023-05-23T03:21:04;100736.28;;;19.02;84.32
42125;BME280;27787;44.594;11.046;2023-05-23T03:23:49;100740.00;;;18.97;84.25
42125;BME280;27787;44.594;11.046;2023-05-23T03:26:33;100736.59;;;18.92;84.55
42125;BME280;27787;44.594;11.046;2023-05-23T03:29:17;100742.97;;;18.86;84.74
42125;BME280;27787;44.594;11.046;2023-05-23T03:32:01;100743.22;;;18.77;85.79
42125;BME280;27787;44.594;11.046;2023-05-23T03:34:45;100748.78;;;18.69;85.97
42125;BME280;27787;44.594;11.046;2023-05-23T03:37:30;100744.50;;;18.61;86.89
42125;BME280;27787;44.594;11.046;2023-05-23T03:40:14;100746.41;;;18.55;87.27
42125;BME280;27787;44.594;11.046;2023-05-23T03:43:03;100747.28;;;18.56;87.08
42125;BME280;27787;44.594;11.046;2023-05-23T03:45:49;100745.34;;;18.63;87.01
42125;BME280;27787;44.594;11.046;2023-05-23T03:48:35;100749.66;;;18.70;86.40
42125;BME280;27787;44.594;11.046;2023-05-23T03:51:19;100748.59;;;18.77;86.30
42125;BME280;27787;44.594;11.046;2023-05-23T03:54:03;100744.84;;;18.82;85.40
42125;BME280;27787;44.594;11.046;2023-05-23T03:56:48;100743.06;;;18.83;84.96
42125;BME280;27787;44.594;11.046;2023-05-23T03:59:33;100745.72;;;18.83;85.08
42125;BME280;27787;44.594;11.046;2023-05-23T04:02:18;100753.75;;;18.83;84.83
42125;BME280;27787;44.594;11.046;2023-05-23T04:05:02;100751.06;;;18.83;84.91
42125;BME280;27787;44.594;11.046;2023-05-23T04:07:47;100752.88;;;18.82;84.87
42125;BME280;27787;44.594;11.046;2023-05-23T04:10:32;100750.94;;;18.89;84.94
42125;BME280;27787;44.594;11.046;2023-05-23T04:13:16;100749.00;;;18.94;84.20
42125;BME280;27787;44.594;11.046;2023-05-23T04:16:01;100750.78;;;18.94;84.07
42125;BME280;27787;44.594;11.046;2023-05-23T04:18:48;100751.84;;;18.88;83.79
42125;BME280;27787;44.594;11.046;2023-05-23T04:21:33;100752.19;;;18.76;84.40
42125;BME280;27787;44.594;11.046;2023-05-23T04:24:28;100748.84;;;18.66;84.73
42125;BME280;27787;44.594;11.046;2023-05-23T04:27:12;100748.91;;;18.65;84.97
42125;BME280;27787;44.594;11.046;2023-05-23T04:29:56;100753.28;;;18.67;84.96
42125;BME280;27787;44.594;11.046;2023-05-23T04:32:42;100756.66;;;18.74;84.92
42125;BME280;27787;44.594;11.046;2023-05-23T04:35:27;100755.63;;;18.79;83.68
42125;BME280;27787;44.594;11.046;2023-05-23T04:38:11;100747.56;;;18.81;83.39
42125;BME280;27787;44.594;11.046;2023-05-23T04:40:56;100749.28;;;18.83;83.13
42125;BME280;27787;44.594;11.046;2023-05-23T04:44:00;100764.31;;;18.89;83.13
42125;BME280;27787;44.594;11.046;2023-05-23T04:46:49;100753.47;;;18.94;83.02
42125;BME280;27787;44.594;11.046;2023-05-23T04:49:37;100753.31;;;18.98;82.71
42125;BME280;27787;44.594;11.046;2023-05-23T04:52:21;100751.44;;;19.03;82.68
42125;BME280;27787;44.594;11.046;2023-05-23T04:55:06;100747.69;;;19.09;82.50
42125;BME280;27787;44.594;11.046;2023-05-23T04:57:53;100749.41;;;19.11;82.02
42125;BME280;27787;44.594;11.046;2023-05-23T05:00:37;100748.44;;;19.14;82.08
42125;BME280;27787;44.594;11.046;2023-05-23T05:03:21;100754.50;;;19.21;82.39
42125;BME280;27787;44.594;11.046;2023-05-23T05:06:08;100759.66;;;19.28;82.12
42125;BME280;27787;44.594;11.046;2023-05-23T05:08:53;100756.78;;;19.34;82.08
42125;BME280;27787;44.594;11.046;2023-05-23T05:11:38;100759.28;;;19.40;82.03
42125;BME280;27787;44.594;11.046;2023-05-23T05:14:27;100756.47;;;19.45;81.94
42125;BME280;27787;44.594;11.046;2023-05-23T05:17:11;100752.78;;;19.49;82.21
42125;BME280;27787;44.594;11.046;2023-05-23T05:20:19;100757.16;;;19.52;82.18
42125;BME280;27787;44.594;11.046;2023-05-23T05:23:04;100756.22;;;19.53;82.60
42125;BME280;27787;44.594;11.046;2023-05-23T05:25:49;100758.03;;;19.52;82.79
42125;BME280;27787;44.594;11.046;2023-05-23T05:28:33;100755.34;;;19.54;82.73
42125;BME280;27787;44.594;11.046;2023-05-23T05:31:18;100754.44;;;19.55;83.50
42125;BME280;27787;44.594;11.046;2023-05-23T05:34:02;100755.34;;;19.54;84.05
42125;BME280;27787;44.594;11.046;2023-05-23T05:36:46;100758.91;;;19.53;84.70
42125;BME280;27787;44.594;11.046;2023-05-23T05:39:33;100758.97;;;19.51;85.18
42125;BME280;27787;44.594;11.046;2023-05-23T05:42:17;100758.91;;;19.53;85.55
42125;BME280;27787;44.594;11.046;2023-05-23T05:45:01;100760.69;;;19.55;86.18
42125;BME280;27787;44.594;11.046;2023-05-23T05:47:47;100770.41;;;19.58;86.80
42125;BME280;27787;44.594;11.046;2023-05-23T05:50:31;100763.09;;;19.63;86.86
42125;BME280;27787;44.594;11.046;2023-05-23T05:53:15;100759.44;;;19.65;86.22
42125;BME280;27787;44.594;11.046;2023-05-23T05:56:01;100751.34;;;19.68;85.83
42125;BME280;27787;44.594;11.046;2023-05-23T05:58:46;100759.19;;;19.74;85.89
42125;BME280;27787;44.594;11.046;2023-05-23T06:01:32;100759.88;;;19.81;86.09
42125;BME280;27787;44.594;11.046;2023-05-23T06:04:19;100761.44;;;19.88;85.75
42125;BME280;27787;44.594;11.046;2023-05-23T06:07:03;100757.59;;;19.97;85.74
42125;BME280;27787;44.594;11.046;2023-05-23T06:09:48;100761.81;;;20.06;85.60
42125;BME280;27787;44.594;11.046;2023-05-23T06:12:34;100757.16;;;20.11;86.52
42125;BME280;27787;44.594;11.046;2023-05-23T06:15:18;100759.69;;;20.15;87.47
42125;BME280;27787;44.594;11.046;2023-05-23T06:18:02;100765.75;;;20.22;87.74
42125;BME280;27787;44.594;11.046;2023-05-23T06:20:48;100754.91;;;20.25;88.51
42125;BME280;27787;44.594;11.046;2023-05-23T06:23:34;100750.25;;;20.31;88.45
42125;BME280;27787;44.594;11.046;2023-05-23T06:26:19;100751.88;;;20.36;88.74
42125;BME280;27787;44.594;11.046;2023-05-23T06:29:03;100753.63;;;20.37;89.44
42125;BME280;27787;44.594;11.046;2023-05-23T06:31:47;100756.22;;;20.40;90.26
42125;BME280;27787;44.594;11.046;2023-05-23T06:34:31;100752.59;;;20.41;89.97
42125;BME280;27787;44.594;11.046;2023-05-23T06:37:16;100756.22;;;20.40;89.96
42125;BME280;27787;44.594;11.046;2023-05-23T06:40:00;100759.81;;;20.39;90.46
42125;BME280;27787;44.594;11.046;2023-05-23T06:42:44;100760.63;;;20.41;89.66
42125;BME280;27787;44.594;11.046;2023-05-23T06:45:41;100756.94;;;20.46;89.39
42125;BME280;27787;44.594;11.046;2023-05-23T06:48:30;100762.03;;;20.54;88.58
42125;BME280;27787;44.594;11.046;2023-05-23T06:51:16;100752.91;;;20.59;87.99
42125;BME280;27787;44.594;11.046;2023-05-23T06:54:00;100756.25;;;20.66;87.67
42125;BME280;27787;44.594;11.046;2023-05-23T06:56:44;100758.56;;;20.77;88.09
42125;BME280;27787;44.594;11.046;2023-05-23T06:59:29;100764.59;;;20.83;87.86
42125;BME280;27787;44.594;11.046;2023-05-23T07:02:13;100767.94;;;20.90;87.32
42125;BME280;27787;44.594;11.046;2023-05-23T07:04:58;100768.75;;;20.92;85.72
42125;BME280;27787;44.594;11.046;2023-05-23T07:08:02;100769.50;;;20.96;84.32
42125;BME280;27787;44.594;11.046;2023-05-23T07:10:46;100768.50;;;21.00;85.42
42125;BME280;27787;44.594;11.046;2023-05-23T07:13:54;100768.31;;;21.04;85.63
42125;BME280;27787;44.594;11.046;2023-05-23T07:16:53;100768.13;;;21.09;85.41
42125;BME280;27787;44.594;11.046;2023-05-23T07:19:38;100765.13;;;21.18;84.71
42125;BME280;27787;44.594;11.046;2023-05-23T07:22:23;100760.50;;;21.23;83.10
42125;BME280;27787;44.594;11.046;2023-05-23T07:25:07;100766.53;;;21.30;82.82
42125;BME280;27787;44.594;11.046;2023-05-23T07:27:52;100769.97;;;21.33;82.86
42125;BME280;27787;44.594;11.046;2023-05-23T07:30:37;100768.88;;;21.39;82.01
42125;BME280;27787;44.594;11.046;2023-05-23T07:33:22;100772.31;;;21.42;80.08
42125;BME280;27787;44.594;11.046;2023-05-23T07:36:06;100762.28;;;21.47;80.27
42125;BME280;27787;44.594;11.046;2023-05-23T07:38:51;100770.88;;;21.57;77.93
42125;BME280;27787;44.594;11.046;2023-05-23T07:41:36;100772.56;;;21.60;78.09
42125;BME280;27787;44.594;11.046;2023-05-23T07:44:20;100772.41;;;21.64;77.46
42125;BME280;27787;44.594;11.046;2023-05-23T07:47:05;100759.53;;;21.72;75.83
42125;BME280;27787;44.594;11.046;2023-05-23T07:49:49;100770.00;;;21.80;77.03
42125;BME280;27787;44.594;11.046;2023-05-23T07:52:35;100768.25;;;21.79;75.11
42125;BME280;27787;44.594;11.046;2023-05-23T07:55:22;100761.06;;;21.79;74.86
42125;BME280;27787;44.594;11.046;2023-05-23T07:58:07;100760.88;;;21.84;74.30
42125;BME280;27787;44.594;11.046;2023-05-23T08:00:51;100765.16;;;21.90;73.70
42125;BME280;27787;44.594;11.046;2023-05-23T08:03:56;100764.94;;;21.94;73.65
42125;BME280;27787;44.594;11.046;2023-05-23T08:06:47;100760.25;;;21.99;73.80
42125;BME280;27787;44.594;11.046;2023-05-23T08:09:32;100758.41;;;22.01;74.34
42125;BME280;27787;44.594;11.046;2023-05-23T08:12:16;100758.25;;;22.06;74.97
42125;BME280;27787;44.594;11.046;2023-05-23T08:15:02;100753.47;;;22.13;73.29
42125;BME280;27787;44.594;11.046;2023-05-23T08:17:55;100757.94;;;22.14;72.75
42125;BME280;27787;44.594;11.046;2023-05-23T08:20:41;100755.75;;;22.23;72.52
42125;BME280;27787;44.594;11.046;2023-05-23T08:23:26;100756.38;;;22.30;72.53
42125;BME280;27787;44.594;11.046;2023-05-23T08:26:10;100748.78;;;22.40;72.15
42125;BME280;27787;44.594;11.046;2023-05-23T08:28:56;100755.94;;;22.41;71.22
42125;BME280;27787;44.594;11.046;2023-05-23T08:31:40;100747.75;;;22.44;71.24
42125;BME280;27787;44.594;11.046;2023-05-23T08:34:24;100737.78;;;22.46;71.41
42125;BME280;27787;44.594;11.046;2023-05-23T08:37:08;100735.75;;;22.51;72.29
42125;BME280;27787;44.594;11.046;2023-05-23T08:39:52;100742.72;;;22.56;71.92
42125;BME280;27787;44.594;11.046;2023-05-23T08:43:00;100752.16;;;22.66;72.64
42125;BME280;27787;44.594;11.046;2023-05-23T08:45:45;100748.50;;;22.67;72.73
42125;BME280;27787;44.594;11.046;2023-05-23T08:48:32;100742.13;;;22.70;73.45
42125;BME280;27787;44.594;11.046;2023-05-23T08:51:19;100744.88;;;22.69;72.14
42125;BME280;27787;44.594;11.046;2023-05-23T08:54:06;100751.94;;;22.71;73.18
42125;BME280;27787;44.594;11.046;2023-05-23T08:56:53;100749.91;;;22.76;73.84
42125;BME280;27787;44.594;11.046;2023-05-23T08:59:37;100746.25;;;22.79;73.82
42125;BME280;27787;44.594;11.046;2023-05-23T09:02:22;100739.72;;;22.84;72.70
42125;BME280;27787;44.594;11.046;2023-05-23T09:05:14;100746.53;;;22.93;74.94
42125;BME280;27787;44.594;11.046;2023-05-23T09:07:58;100744.03;;;23.09;73.12
42125;BME280;27787;44.594;11.046;2023-05-23T09:10:43;100736.97;;;23.06;72.23
42125;BME280;27787;44.594;11.046;2023-05-23T09:13:30;100745.78;;;23.10;70.84
42125;BME280;27787;44.594;11.046;2023-05-23T09:16:16;100743.31;;;23.05;70.18
42125;BME280;27787;44.594;11.046;2023-05-23T09:19:14;100737.94;;;23.05;70.93
42125;BME280;27787;44.594;11.046;2023-05-23T09:22:05;100750.22;;;23.11;72.13
42125;BME280;27787;44.594;11.046;2023-05-23T09:24:56;100749.06;;;23.16;70.42
42125;BME280;27787;44.594;11.046;2023-05-23T09:27:41;100745.31;;;23.20;67.99
42125;BME280;27787;44.594;11.046;2023-05-23T09:30:26;100744.38;;;23.21;67.61
42125;BME280;27787;44.594;11.046;2023-05-23T09:33:13;100738.19;;;23.19;67.97
42125;BME280;27787;44.594;11.046;2023-05-23T09:35:58;100739.94;;;23.20;67.08
42125;BME280;27787;44.594;11.046;2023-05-23T09:38:44;100736.13;;;23.24;68.44
42125;BME280;27787;44.594;11.046;2023-05-23T09:41:32;100742.06;;;23.33;70.47
42125;BME280;27787;44.594;11.046;2023-05-23T09:44:22;100732.09;;;23.35;70.48
42125;BME280;27787;44.594;11.046;2023-05-23T09:47:07;100740.47;;;23.47;67.28
42125;BME280;27787;44.594;11.046;2023-05-23T09:49:51;100736.69;;;23.51;65.70
42125;BME280;27787;44.594;11.046;2023-05-23T09:52:38;100736.75;;;23.50;63.98
42125;BME280;27787;44.594;11.046;2023-05-23T09:55:22;100735.72;;;23.52;64.59
42125;BME280;27787;44.594;11.046;2023-05-23T09:58:06;100723.06;;;23.54;65.27
42125;BME280;27787;44.594;11.046;2023-05-23T10:00:52;100725.53;;;23.61;64.98
42125;BME280;27787;44.594;11.046;2023-05-23T10:03:51;100724.75;;;23.57;63.95
42125;BME280;27787;44.594;11.046;2023-05-23T10:06:45;100723.13;;;23.53;65.65
42125;BME280;27787;44.594;11.046;2023-05-23T10:09:35;100717.59;;;23.56;67.22
42125;BME280;27787;44.594;11.046;2023-05-23T10:12:38;100725.97;;;23.70;64.96
42125;BME280;27787;44.594;11.046;2023-05-23T10:15:25;100724.72;;;23.77;64.32
42125;BME280;27787;44.594;11.046;2023-05-23T10:18:16;100715.03;;;23.73;65.29
42125;BME280;27787;44.594;11.046;2023-05-23T10:21:08;100723.03;;;23.75;61.00
42125;BME280;27787;44.594;11.046;2023-05-23T10:23:54;100726.75;;;23.72;60.98
42125;BME280;27787;44.594;11.046;2023-05-23T10:26:42;100721.72;;;23.83;66.51
42125;BME280;27787;44.594;11.046;2023-05-23T10:29:28;100723.47;;;23.85;67.52
42125;BME280;27787;44.594;11.046;2023-05-23T10:32:13;100722.00;;;23.96;67.62
42125;BME280;27787;44.594;11.046;2023-05-23T10:35:45;100717.69;;;24.11;65.65
42125;BME280;27787;44.594;11.046;2023-05-23T10:42:01;100719.25;;;24.34;66.59
42125;BME280;27787;44.594;11.046;2023-05-23T10:44:45;100726.19;;;24.39;63.93
42125;BME280;27787;44.594;11.046;2023-05-23T10:47:29;100716.72;;;24.31;63.95
42125;BME280;27787;44.594;11.046;2023-05-23T10:50:29;100719.47;;;24.29;65.87
42125;BME280;27787;44.594;11.046;2023-05-23T10:53:15;100705.16;;;24.27;65.47
42125;BME280;27787;44.594;11.046;2023-05-23T10:55:59;100700.34;;;24.34;64.47
42125;BME280;27787;44.594;11.046;2023-05-23T10:58:44;100701.88;;;24.39;63.42
42125;BME280;27787;44.594;11.046;2023-05-23T11:01:28;100705.84;;;24.32;64.58
42125;BME280;27787;44.594;11.046;2023-05-23T11:04:13;100699.41;;;24.35;64.11
42125;BME280;27787;44.594;11.046;2023-05-23T11:06:57;100696.72;;;24.35;63.41
42125;BME280;27787;44.594;11.046;2023-05-23T11:10:07;100694.91;;;24.35;59.80
42125;BME280;27787;44.594;11.046;2023-05-23T11:13:05;100699.84;;;24.62;63.23
42125;BME280;27787;44.594;11.046;2023-05-23T11:15:49;100699.22;;;24.74;63.14
42125;BME280;27787;44.594;11.046;2023-05-23T11:18:35;100691.38;;;24.85;62.20
42125;BME280;27787;44.594;11.046;2023-05-23T11:21:20;100685.75;;;24.73;62.49
42125;BME280;27787;44.594;11.046;2023-05-23T11:24:04;100685.53;;;24.60;64.11
42125;BME280;27787;44.594;11.046;2023-05-23T11:26:58;100687.06;;;24.65;63.91
42125;BME280;27787;44.594;11.046;2023-05-23T11:32:53;100689.34;;;24.73;60.75
42125;BME280;27787;44.594;11.046;2023-05-23T11:35:44;100691.25;;;24.71;59.33
42125;BME280;27787;44.594;11.046;2023-05-23T11:38:29;100682.53;;;24.66;59.29
42125;BME280;27787;44.594;11.046;2023-05-23T11:41:14;100676.63;;;24.58;58.81
42125;BME280;27787;44.594;11.046;2023-05-23T11:43:58;100675.84;;;24.56;59.05
42125;BME280;27787;44.594;11.046;2023-05-23T11:46:58;100681.41;;;24.70;55.75
42125;BME280;27787;44.594;11.046;2023-05-23T11:49:45;100673.78;;;24.78;55.44
42125;BME280;27787;44.594;11.046;2023-05-23T11:52:31;100666.72;;;24.76;55.74
42125;BME280;27787;44.594;11.046;2023-05-23T11:55:19;100668.69;;;24.72;57.00
42125;BME280;27787;44.594;11.046;2023-05-23T11:58:04;100658.63;;;24.76;56.22
42125;BME280;27787;44.594;11.046;2023-05-23T12:00:48;100658.75;;;24.90;54.64
42125;BME280;27787;44.594;11.046;2023-05-23T12:03:33;100657.00;;;24.89;56.00
42125;BME280;27787;44.594;11.046;2023-05-23T12:06:18;100652.72;;;24.85;56.64
42125;BME280;27787;44.594;11.046;2023-05-23T12:09:03;100659.25;;;24.81;55.70
42125;BME280;27787;44.594;11.046;2023-05-23T12:11:48;100652.63;;;24.86;54.11
42125;BME280;27787;44.594;11.046;2023-05-23T12:14:32;100644.63;;;25.02;52.54
42125;BME280;27787;44.594;11.046;2023-05-23T12:17:17;100643.22;;;25.11;53.91
42125;BME280;27787;44.594;11.046;2023-05-23T12:20:01;100645.63;;;25.33;50.48
42125;BME280;27787;44.594;11.046;2023-05-23T12:22:47;100633.94;;;25.32;51.33
42125;BME280;27787;44.594;11.046;2023-05-23T12:25:39;100633.06;;;25.32;50.58
42125;BME280;27787;44.594;11.046;2023-05-23T12:28:39;100625.06;;;25.30;51.32
42125;BME280;27787;44.594;11.046;2023-05-23T12:31:24;100629.03;;;25.23;50.10
42125;BME280;27787;44.594;11.046;2023-05-23T12:34:10;100623.13;;;25.16;50.24
42125;BME280;27787;44.594;11.046;2023-05-23T12:36:55;100615.44;;;25.09;49.26
42125;BME280;27787;44.594;11.046;2023-05-23T12:39:42;100615.59;;;25.06;48.96
42125;BME280;27787;44.594;11.046;2023-05-23T12:42:26;100616.75;;;25.02;48.48
42125;BME280;27787;44.594;11.046;2023-05-23T12:45:13;100609.94;;;25.10;48.34
42125;BME280;27787;44.594;11.046;2023-05-23T12:47:57;100608.56;;;25.19;48.66
42125;BME280;27787;44.594;11.046;2023-05-23T12:50:41;100598.28;;;25.25;47.78
42125;BME280;27787;44.594;11.046;2023-05-23T12:53:25;100600.47;;;25.35;47.07
42125;BME280;27787;44.594;11.046;2023-05-23T12:56:10;100587.13;;;25.47;46.13
42125;BME280;27787;44.594;11.046;2023-05-23T12:58:55;100588.16;;;25.61;46.75
42125;BME280;27787;44.594;11.046;2023-05-23T13:01:40;100575.81;;;25.72;46.40
42125;BME280;27787;44.594;11.046;2023-05-23T13:04:24;100575.38;;;25.80;46.27
42125;BME280;27787;44.594;11.046;2023-05-23T13:07:08;100573.25;;;25.85;45.70
42125;BME280;27787;44.594;11.046;2023-05-23T13:09:52;100583.44;;;25.96;46.08
42125;BME280;27787;44.594;11.046;2023-05-23T13:12:37;100581.22;;;26.02;44.68
42125;BME280;27787;44.594;11.046;2023-05-23T13:15:21;100574.50;;;26.09;44.05
42125;BME280;27787;44.594;11.046;2023-05-23T13:18:05;100573.25;;;26.15;43.72
42125;BME280;27787;44.594;11.046;2023-05-23T13:20:50;100573.75;;;26.22;43.34
42125;BME280;27787;44.594;11.046;2023-05-23T13:23:34;100561.47;;;26.30;43.32
42125;BME280;27787;44.594;11.046;2023-05-23T13:26:20;100554.88;;;26.36;43.22
42125;BME280;27787;44.594;11.046;2023-05-23T13:29:04;100547.22;;;26.42;43.08
42125;BME280;27787;44.594;11.046;2023-05-23T13:31:49;100550.81;;;26.43;42.29
42125;BME280;27787;44.594;11.046;2023-05-23T13:34:33;100543.38;;;26.47;41.57
42125;BME280;27787;44.594;11.046;2023-05-23T13:37:20;100537.38;;;26.56;41.78
42125;BME280;27787;44.594;11.046;2023-05-23T13:40:05;100531.38;;;26.65;41.94
42125;BME280;27787;44.594;11.046;2023-05-23T13:42:49;100531.38;;;26.79;42.48
42125;BME280;27787;44.594;11.046;2023-05-23T13:45:34;100527.31;;;26.86;40.72
42125;BME280;27787;44.594;11.046;2023-05-23T13:48:18;100531.84;;;27.00;41.17
42125;BME280;27787;44.594;11.046;2023-05-23T13:51:02;100529.94;;;27.02;40.72
42125;BME280;27787;44.594;11.046;2023-05-23T13:53:47;100525.94;;;27.08;39.63
42125;BME280;27787;44.594;11.046;2023-05-23T13:56:31;100524.91;;;27.10;40.07
42125;BME280;27787;44.594;11.046;2023-05-23T13:59:14;100521.41;;;27.22;39.69
42125;BME280;27787;44.594;11.046;2023-05-23T14:02:05;100518.16;;;27.30;40.62
42125;BME280;27787;44.594;11.046;2023-05-23T14:04:50;100521.16;;;27.40;41.75
42125;BME280;27787;44.594;11.046;2023-05-23T14:07:35;100513.78;;;27.42;41.17
42125;BME280;27787;44.594;11.046;2023-05-23T14:10:19;100510.66;;;27.48;41.27
42125;BME280;27787;44.594;11.046;2023-05-23T14:13:05;100512.97;;;27.54;40.19
42125;BME280;27787;44.594;11.046;2023-05-23T14:15:50;100514.13;;;27.64;39.25
42125;BME280;27787;44.594;11.046;2023-05-23T14:18:34;100509.69;;;27.76;39.13
42125;BME280;27787;44.594;11.046;2023-05-23T14:21:20;100505.69;;;27.81;38.07
42125;BME280;27787;44.594;11.046;2023-05-23T14:24:04;100509.16;;;27.83;38.26
42125;BME280;27787;44.594;11.046;2023-05-23T14:26:48;100512.00;;;27.95;37.08
42125;BME280;27787;44.594;11.046;2023-05-23T14:29:33;100507.59;;;28.06;37.61
42125;BME280;27787;44.594;11.046;2023-05-23T14:32:17;100520.91;;;27.97;38.28
42125;BME280;27787;44.594;11.046;2023-05-23T14:35:00;100516.78;;;27.91;38.59